Flight Track Log - Related Links

Times and Time Zones

All times are in EDT time to prevent confusion due to time zone crossing. See the N960DL flight status page for this flight to view local times or setup timezone preferences in your user account.

Time Position Orientation Groundspeed Altitude Reporting Facility
EDT Latitude Longitude Course Direction KTS MPH feet Rate Location/Type
Tue 12:56:01 PM 35.1933 -80.9533 270° West 158 182 1,700  Level Atlanta Center
Tue 12:57:32 PM 35.1258 -81.0067 213° Southwest 250 288 4,000 2,146 Climbing Atlanta Center
Tue 12:58:00 PM 35.2599 -81.2325 242° Southwest  Level FlightAware Approximate
Tue 12:58:32 PM 35.1322 -81.0953 275° West 275 316 7,100  Level Atlanta Center
Tue 12:59:00 PM 35.2038 -81.3590 239° Southwest  Level FlightAware Approximate
Tue 12:59:32 PM 35.1300 -81.1842 268° West 280 322 8,500  Level Atlanta Center
Tue 01:00:00 PM 35.1424 -81.4818 239° Southwest  Level FlightAware Approximate
Tue 01:00:32 PM 35.1322 -81.2833 272° West 290 334 10,800  Level Atlanta Center
Tue 01:01:00 PM 35.1334 -81.6226 270° West  Level FlightAware Approximate
Tue 01:01:32 PM 35.1389 -81.3947 274° West 332 382 12,800  Level Atlanta Center
Tue 01:02:32 PM 35.1436 -81.5217 273° West 366 421 14,100 1,550 Climbing Atlanta Center
Tue 01:03:32 PM 35.1381 -81.6489 267° West 399 459 15,900 2,100 Climbing Atlanta Center
Tue 01:04:32 PM 35.1197 -81.7942 261° West 431 496 18,300 2,200 Climbing Atlanta Center
Tue 01:05:32 PM 35.0828 -81.9397 253° West 443 510 20,300 1,850 Climbing Atlanta Center
Tue 01:06:32 PM 35.0414 -82.0828 251° West 456 525 22,000 850 Climbing Atlanta Center
Tue 01:07:32 PM 35.0058 -82.2283 253° West 450 518 22,000  Level Atlanta Center
Tue 01:08:32 PM 34.9619 -82.3686 249° West 445 512 22,000  Level Atlanta Center
Tue 01:09:32 PM 34.9222 -82.5111 251° West 450 518 22,000  Level Atlanta Center
Tue 01:10:32 PM 34.8800 -82.6539 250° West 450 518 22,000  Level Atlanta Center
Tue 01:11:32 PM 34.8294 -82.8039 248° West 450 518 22,000  Level Atlanta Center
Tue 01:12:32 PM 34.7719 -82.8883 230° Southwest 423 487 22,000  Level Atlanta Center
Tue 01:13:32 PM 34.6936 -83.0081 232° Southwest 423 487 22,000  Level Atlanta Center
Tue 01:14:32 PM 34.6172 -83.1125 228° Southwest 413 475 22,000 -100 Level Atlanta Center
Tue 01:15:32 PM 34.5428 -83.2167 229° Southwest 413 475 21,800 -800 Descending Atlanta Center
Tue 01:16:32 PM 34.4664 -83.3183 228° Southwest 413 475 20,400 -1,500 Descending Atlanta Center
Tue 01:17:32 PM 34.3981 -83.4194 231° Southwest 401 461 18,800 -1,850 Descending Atlanta Center
Tue 01:18:32 PM 34.3275 -83.5131 228° Southwest 387 445 16,700 -2,250 Descending Atlanta Center
Tue 01:19:32 PM 34.2528 -83.6142 228° Southwest 376 433 14,300 -1,950 Descending Atlanta Center
Tue 01:20:32 PM 34.1883 -83.7047 229° Southwest 370 426 12,800 -1,150 Descending Atlanta Center
Tue 01:21:32 PM 34.1217 -83.7953 228° Southwest 363 418 12,000 -500 Descending Atlanta Center
Tue 01:22:32 PM 34.0697 -83.8783 233° Southwest 340 391 11,800 -240 Descending Atlanta Center
Tue 01:22:47 PM 34.0667 -83.9000 260° West 299 344 11,700 -880 Descending Atlanta TRACON
Tue 01:23:47 PM 34.0167 -83.9833 234° Southwest 297 342 10,700 -952 Descending Atlanta TRACON
Tue 01:24:53 PM 33.9833 -84.0667 244° Southwest 277 319 9,700 -857 Descending Atlanta TRACON
Tue 01:25:53 PM 33.9167 -84.1000 203° Southwest 263 303 8,900 -848 Descending Atlanta TRACON
Tue 01:26:32 PM 33.8611 -84.1089 188° South 258 297 8,300 -1,091 Descending Atlanta Center
Tue 01:27:32 PM 33.7964 -84.1264 193° South 263 303 7,100 -1,407 Descending Atlanta Center
Tue 01:27:53 PM 33.7667 -84.1333 191° South 260 299 6,400 -1,556 Descending Atlanta TRACON
Tue 01:28:53 PM 33.7000 -84.1500 192° South 245 282 5,000 -1,100 Descending Atlanta TRACON
Tue 01:29:53 PM 33.6500 -84.1833 209° Southwest 203 234 4,200 -800 Descending Atlanta TRACON

Login

Don't have an account? Register now (free) for customized features, flight alerts, and more!